Palmdale, CA (93551)

8:05 PM PDT on September 15, 2014 (GMT -0700)
Our Top Notch Ranch LV | Change Station
CLOSE
Current Station
Personal Weather Station
Location: Leona Valley, CA
Elevation: 3383 ft
Nearby Weather Stations

Elev 3383 ft 34.61 °N, 118.24 °W | Updated 1 minute ago

Clear
Clear
85.2 °F
Feels Like 83 °F
N
6.0
Wind Variable Wind from West
Gusts 11.0 mph

Today
High -- | Low -- °F
--% Chance of Precip.
Yesterday
High -- | Low -- °F
Precip. -- in
6:36 AM 6:59 PM
Waning Gibbous, 50% visible
Pressure 29.81 in
Visibility 10.0 miles
Clouds Clear
Heat Index 83 °F
Dew Point 49 °F
Humidity 28%
Rainfall 0.00 in
Snow Depth 0 in , 0 in , 1 in
UV 0 out of 12
Pollen 7.00 out of 12
Ozone Good
Flu Activity Not available.
METAR KPMD 160253Z AUTO 27007KT 10SM CLR 32/09 A2991 RMK AO2 SLP094 T03220089 53011 TSNO

More Conditions Fewer Conditions

Pressure 29.81 in
Visibility 10.0 miles
Clouds Clear
Heat Index 83 °F
Dew Point 49 °F
Humidity 28%
Rainfall 0.00 in
Snow Depth 0 in , 0 in , 1 in
UV 0 out of 12
Pollen 7.00 out of 12
Ozone Good
Flu Activity Not available.
METAR KPMD 160253Z AUTO 27007KT 10SM CLR 32/09 A2991 RMK AO2 SLP094 T03220089 53011 TSNO

More Conditions Fewer Conditions

10-Day Weather Forecast

Almanac

Astronomy

Sep. 15, 2014 Rise Set
Actual Time 6:36 AM PDT 6:59 PM PDT
Civil Twilight 6:10 AM PDT 7:24 PM PDT
Nautical Twilight 5:41 AM PDT 7:54 PM PDT
Astronomical Twilight 5:11 AM PDT 8:24 PM PDT
Moon No Moon Rise 1:25 PM PDT (9/15)
Length of Visible Light 13h 13m
Length of Day
12h 23m
Tomorrow will be 2m 9s shorter.
Waning Gibbous, 50% of the Moon is Illuminated
Today
Waning Gibbous
Sep 24
New
Oct 1
First Quarter
Oct 8
Full
Oct 15
Last Quarter

Today's Extremes

State Highs State Lows

Community

WunderPhotos

Upload Photos

1,753,689 photos uploaded!

Nearby

Air Quality

  Air Quality AQ Index Pollutant
Yesterday Moderate
OZONE
Yesterday Good
PM10
Current Good
OZONE
Tuesday Moderate
OZONE
Tuesday Good
PM10
Tuesday Good
CO
Tuesday Good
NO2

Snow Depth

Station Depth Elevation
Spratt Creek 0 in 6200 ft
Monitor Pass 0 in 8350 ft
Leavitt Meadows 1 in 7200 ft
CSS Lab 2 in 6900 ft
Cedar Pass 0 in 7100 ft

Earthquake Activity

City Distance Mag. Time & Date
Inyokern, California 92 miles 3.2 5:56 PM PDT
2014-09-14
San Jacinto, California 91 miles 3.0 3:16 PM PDT
2014-09-14
Minimum magnitude displayed is 2.5.

Coastal Water Temperatures

Place Temperature
No Stations Reporting

Nearby Weather Stations